createdAt,value
2023-05-05T00:01:03.071Z,60.31
2023-05-05T00:03:31.433Z,60.67
2023-05-05T00:05:59.760Z,60.92
2023-05-05T00:08:28.565Z,60.77
2023-05-05T00:10:57.676Z,60.85
2023-05-05T00:13:27.319Z,61.08
2023-05-05T00:15:55.617Z,61.60
2023-05-05T00:18:23.909Z,61.54
2023-05-05T00:20:52.424Z,61.81
2023-05-05T00:23:21.190Z,62.15
2023-05-05T00:25:49.404Z,62.23
2023-05-05T00:28:17.654Z,62.32
2023-05-05T00:30:47.341Z,62.48
2023-05-05T00:33:15.866Z,62.26
2023-05-05T00:35:44.214Z,62.34
2023-05-05T00:38:12.674Z,62.58
2023-05-05T00:40:40.986Z,62.61
2023-05-05T00:43:09.237Z,62.92
2023-05-05T00:45:39.234Z,63.42
2023-05-05T00:48:09.512Z,63.92
2023-05-05T00:50:38.637Z,64.51
2023-05-05T00:53:08.095Z,65.10
2023-05-05T00:55:36.687Z,65.81
2023-05-05T00:58:05.204Z,66.65
2023-05-05T01:00:33.576Z,67.65
2023-05-05T01:03:01.960Z,68.59
2023-05-05T01:05:36.724Z,69.46
2023-05-05T01:08:16.369Z,70.25
2023-05-05T01:10:47.324Z,70.90
2023-05-05T01:13:24.464Z,71.74
2023-05-05T01:15:56.995Z,72.17
2023-05-05T01:18:43.163Z,72.70
2023-05-05T01:21:16.849Z,73.20
2023-05-05T01:24:08.074Z,73.41
2023-05-05T01:26:49.127Z,73.61
2023-05-05T01:29:51.781Z,74.09
2023-05-05T01:32:25.200Z,74.33
2023-05-05T01:34:56.212Z,74.53
2023-05-05T01:37:28.095Z,74.77
2023-05-05T01:40:00.455Z,74.91
2023-05-05T01:42:30.473Z,75.13
2023-05-05T01:45:00.039Z,75.28
2023-05-05T01:47:30.227Z,75.42
2023-05-05T01:49:59.395Z,75.46
2023-05-05T01:52:28.467Z,75.71
2023-05-05T01:54:57.705Z,75.78
2023-05-05T01:57:26.573Z,75.92
2023-05-05T01:59:55.792Z,75.82
2023-05-05T02:02:24.482Z,76.12
2023-05-05T02:04:55.730Z,76.01
2023-05-05T02:07:24.639Z,76.05
2023-05-05T02:09:53.689Z,76.17
2023-05-05T02:12:22.588Z,75.93
2023-05-05T02:14:52.244Z,75.94
2023-05-05T02:17:21.562Z,75.92
2023-05-05T02:19:52.413Z,75.84
2023-05-05T02:22:22.010Z,75.94
2023-05-05T02:24:50.272Z,76.05
2023-05-05T02:27:20.259Z,76.14
2023-05-05T02:29:51.548Z,76.31
2023-05-05T02:32:23.574Z,76.43
2023-05-05T02:34:53.329Z,76.41
2023-05-05T02:37:25.217Z,76.59
2023-05-05T02:39:59.556Z,76.80
2023-05-05T02:42:30.838Z,77.05
2023-05-05T02:45:01.165Z,77.08
2023-05-05T02:47:36.859Z,77.19
2023-05-05T02:50:05.454Z,77.41
2023-05-05T02:52:35.575Z,77.63
2023-05-05T02:55:05.364Z,77.87
2023-05-05T02:57:38.909Z,77.89
2023-05-05T03:00:11.880Z,78.11
2023-05-05T03:02:45.730Z,78.22
2023-05-05T03:05:18.325Z,78.41
2023-05-05T03:07:55.481Z,78.32
2023-05-05T03:10:28.706Z,78.57
2023-05-05T03:12:59.675Z,78.54
2023-05-05T03:15:31.493Z,78.57
2023-05-05T03:18:00.317Z,78.64
2023-05-05T03:20:28.718Z,78.78
2023-05-05T03:22:58.404Z,78.88
2023-05-05T03:25:44.622Z,78.96
2023-05-05T03:28:12.832Z,79.24
2023-05-05T03:30:41.227Z,79.23
2023-05-05T03:33:09.634Z,79.55
2023-05-05T03:35:38.049Z,79.63
2023-05-05T03:38:07.758Z,79.59
2023-05-05T03:40:43.649Z,79.59
2023-05-05T03:43:12.692Z,79.59
2023-05-05T03:45:40.967Z,79.63
2023-05-05T03:48:10.107Z,79.46
2023-05-05T03:50:38.457Z,79.48
2023-05-05T03:53:08.149Z,79.48
2023-05-05T03:55:36.434Z,79.42
2023-05-05T03:58:04.720Z,79.29
2023-05-05T04:00:32.926Z,79.40
2023-05-05T04:03:01.142Z,79.45
2023-05-05T04:05:29.551Z,79.23
2023-05-05T04:07:58.454Z,79.20
2023-05-05T04:10:28.442Z,79.16
2023-05-05T04:12:56.953Z,79.02
2023-05-05T04:15:25.316Z,79.11
2023-05-05T04:17:53.610Z,78.95
2023-05-05T04:20:22.018Z,78.94
2023-05-05T04:22:52.729Z,78.82
2023-05-05T04:25:21.113Z,79.01
2023-05-05T04:27:51.132Z,78.95
2023-05-05T04:30:19.459Z,78.83
2023-05-05T04:32:47.749Z,79.05
2023-05-05T04:35:16.027Z,78.97
2023-05-05T04:37:44.302Z,79.07
2023-05-05T04:40:13.222Z,79.06
2023-05-05T04:42:41.549Z,79.13
2023-05-05T04:45:13.199Z,79.20
2023-05-05T04:47:41.830Z,79.20
2023-05-05T04:50:11.448Z,79.18
2023-05-05T04:52:39.708Z,79.21
2023-05-05T04:55:10.302Z,79.08
2023-05-05T04:57:38.532Z,79.12
2023-05-05T05:00:08.228Z,78.74
2023-05-05T05:02:38.765Z,78.36
2023-05-05T05:05:08.064Z,78.16
2023-05-05T05:07:36.265Z,78.11
2023-05-05T05:10:04.703Z,77.61
2023-05-05T05:12:33.025Z,77.38
2023-05-05T05:15:01.274Z,77.20
2023-05-05T05:17:30.463Z,76.94
2023-05-05T05:20:04.738Z,76.62
2023-05-05T05:22:33.064Z,76.29
2023-05-05T05:25:01.342Z,76.34
2023-05-05T05:27:29.540Z,75.95
2023-05-05T05:29:57.749Z,75.59
2023-05-05T05:32:26.415Z,74.87
2023-05-05T05:34:54.733Z,74.08
2023-05-05T05:37:24.303Z,73.15
2023-05-05T05:39:53.210Z,72.11
2023-05-05T05:42:21.412Z,71.31
2023-05-05T05:44:49.631Z,70.83
2023-05-05T05:47:18.068Z,69.88
2023-05-05T05:49:46.415Z,69.06
2023-05-05T05:52:14.601Z,68.51
2023-05-05T05:54:44.214Z,67.87
2023-05-05T05:57:12.499Z,67.41
2023-05-05T05:59:40.730Z,66.87
2023-05-05T06:02:09.775Z,66.12
2023-05-05T06:04:38.096Z,66.06
2023-05-05T06:07:06.402Z,66.07
2023-05-05T06:09:34.598Z,65.99
2023-05-05T06:12:04.182Z,65.88
2023-05-05T06:14:32.301Z,65.31
2023-05-05T06:17:00.365Z,65.00
2023-05-05T06:19:28.828Z,64.65
2023-05-05T06:21:56.954Z,64.06
2023-05-05T06:24:25.070Z,64.12
2023-05-05T06:26:53.147Z,64.23
2023-05-05T06:29:22.631Z,64.02
2023-05-05T06:31:51.020Z,63.89
2023-05-05T06:34:19.437Z,63.48
2023-05-05T06:36:47.785Z,63.48
2023-05-05T06:39:16.289Z,63.40
2023-05-05T06:41:44.624Z,63.16
2023-05-05T06:44:12.924Z,63.11
2023-05-05T06:46:43.836Z,62.79
2023-05-05T06:49:12.399Z,62.46
2023-05-05T06:51:42.753Z,62.31
2023-05-05T06:54:11.182Z,62.25
2023-05-05T06:56:39.478Z,61.94
2023-05-05T06:59:07.908Z,61.97
2023-05-05T07:01:36.155Z,61.92
2023-05-05T07:04:06.344Z,62.28
2023-05-05T07:06:34.644Z,62.26
2023-05-05T07:09:03.547Z,61.91
2023-05-05T07:11:31.760Z,61.54
2023-05-05T07:13:59.967Z,61.35
2023-05-05T07:16:28.203Z,61.35
2023-05-05T07:18:56.852Z,61.04
2023-05-05T07:21:26.433Z,60.71
2023-05-05T07:23:54.620Z,60.14
2023-05-05T07:26:23.008Z,60.13
2023-05-05T07:28:52.526Z,59.00
2023-05-05T07:31:22.064Z,58.63
2023-05-05T07:33:50.696Z,58.80
2023-05-05T07:36:19.516Z,59.09
2023-05-05T07:38:49.097Z,59.13
2023-05-05T07:41:18.531Z,58.91
2023-05-05T07:43:46.814Z,58.64
2023-05-05T07:46:15.239Z,58.06
2023-05-05T07:48:43.469Z,57.33
2023-05-05T07:51:12.017Z,56.19
2023-05-05T07:53:40.217Z,56.19
2023-05-05T07:56:09.840Z,55.08
2023-05-05T07:58:38.300Z,54.58
2023-05-05T08:01:10.799Z,54.12
2023-05-05T08:03:39.152Z,53.77
2023-05-05T08:06:09.125Z,52.95
2023-05-05T08:08:37.360Z,52.33
2023-05-05T08:11:06.649Z,51.98
2023-05-05T08:13:36.746Z,51.57
2023-05-05T08:16:05.308Z,52.46
2023-05-05T08:18:34.481Z,52.73
2023-05-05T08:21:02.727Z,53.54
2023-05-05T08:23:30.898Z,53.47
2023-05-05T08:25:59.276Z,53.66
2023-05-05T08:28:27.760Z,53.84
2023-05-05T08:30:57.410Z,54.43
2023-05-05T08:33:25.709Z,54.94
2023-05-05T08:35:53.977Z,54.34
2023-05-05T08:38:22.248Z,54.32
2023-05-05T08:40:52.252Z,53.95
2023-05-05T08:43:22.914Z,54.07
2023-05-05T08:45:52.412Z,53.63
2023-05-05T08:48:24.355Z,52.59
2023-05-05T08:50:57.382Z,52.33
2023-05-05T08:53:37.168Z,51.81
2023-05-05T08:56:06.825Z,51.63
2023-05-05T08:58:37.652Z,50.81
2023-05-05T09:01:07.034Z,50.65
2023-05-05T09:03:38.225Z,50.04
2023-05-05T09:06:07.087Z,49.59
2023-05-05T09:08:35.366Z,49.51
2023-05-05T09:11:03.924Z,49.67
2023-05-05T09:13:32.574Z,49.66
2023-05-05T09:16:01.035Z,49.80
2023-05-05T09:18:29.961Z,50.75
2023-05-05T09:21:00.205Z,50.68
2023-05-05T09:23:28.353Z,49.89
2023-05-05T09:26:08.869Z,48.99
2023-05-05T09:28:37.672Z,49.22
2023-05-05T09:31:16.426Z,48.90
2023-05-05T09:33:44.941Z,49.05
2023-05-05T09:36:14.552Z,48.85
2023-05-05T09:38:42.692Z,48.49
2023-05-05T09:41:10.973Z,48.38
2023-05-05T09:43:52.861Z,49.05
2023-05-05T09:46:21.219Z,48.02
2023-05-05T09:48:49.423Z,47.61
2023-05-05T09:51:29.740Z,47.58
2023-05-05T09:53:58.446Z,47.87
2023-05-05T09:56:41.517Z,49.19
2023-05-05T09:59:10.215Z,49.25
2023-05-05T10:01:39.080Z,49.55
2023-05-05T10:04:07.464Z,49.87
2023-05-05T10:06:47.194Z,50.39
2023-05-05T10:09:15.835Z,50.96
2023-05-05T10:11:46.157Z,51.58
2023-05-05T10:14:15.789Z,51.31
2023-05-05T10:16:48.359Z,51.54
2023-05-05T10:19:18.166Z,51.84
2023-05-05T10:21:51.662Z,51.92
2023-05-05T10:24:28.056Z,52.21
2023-05-05T10:26:59.175Z,51.59
2023-05-05T10:29:34.946Z,50.67
2023-05-05T10:32:27.240Z,49.83
2023-05-05T10:34:58.790Z,48.97
2023-05-05T10:37:29.155Z,49.45
2023-05-05T10:39:57.915Z,49.03
2023-05-05T10:42:27.777Z,48.46
2023-05-05T10:44:56.023Z,48.00
2023-05-05T10:47:24.731Z,47.71
2023-05-05T10:49:56.908Z,47.46
2023-05-05T10:52:32.581Z,47.68
2023-05-05T10:55:09.468Z,47.80
2023-05-05T10:57:41.108Z,47.85
2023-05-05T11:00:10.530Z,47.31
2023-05-05T11:02:38.839Z,46.67
2023-05-05T11:05:09.390Z,47.47
2023-05-05T11:07:39.214Z,47.91
2023-05-05T11:10:08.857Z,48.54
2023-05-05T11:13:14.773Z,49.27
2023-05-05T11:15:43.076Z,50.27
2023-05-05T11:18:28.260Z,50.63
2023-05-05T11:21:15.268Z,50.26
2023-05-05T11:23:49.152Z,49.74
2023-05-05T11:26:18.564Z,48.76
2023-05-05T11:29:01.218Z,48.43
2023-05-05T11:31:30.625Z,48.78
2023-05-05T11:34:24.818Z,48.50
2023-05-05T11:36:53.344Z,48.55
2023-05-05T11:39:29.177Z,47.70
2023-05-05T11:42:11.007Z,47.18
2023-05-05T11:44:39.252Z,47.47
2023-05-05T11:47:26.816Z,47.85
2023-05-05T11:49:55.584Z,48.70
2023-05-05T11:52:25.782Z,49.31
2023-05-05T11:55:01.008Z,49.68
2023-05-05T11:57:30.762Z,50.24
2023-05-05T12:00:01.740Z,50.56
2023-05-05T12:02:31.483Z,50.93
2023-05-05T12:05:00.901Z,51.36
2023-05-05T12:07:30.918Z,51.46
2023-05-05T12:10:00.837Z,51.56
2023-05-05T12:12:36.984Z,51.40
2023-05-05T12:15:06.507Z,51.55
2023-05-05T12:17:42.546Z,51.88
2023-05-05T12:20:12.422Z,51.69
2023-05-05T12:22:41.331Z,52.28
2023-05-05T12:25:11.711Z,52.54
2023-05-05T12:27:39.921Z,53.11
2023-05-05T12:30:19.617Z,53.23
2023-05-05T12:32:47.788Z,53.28
2023-05-05T12:35:17.006Z,53.37
2023-05-05T12:37:45.590Z,53.93
2023-05-05T12:40:49.656Z,53.64
2023-05-05T12:43:26.526Z,53.47
2023-05-05T12:46:05.571Z,53.48
2023-05-05T12:48:34.001Z,54.16
2023-05-05T12:51:19.795Z,53.73
2023-05-05T12:53:48.526Z,54.12
2023-05-05T12:56:38.252Z,54.13
2023-05-05T12:59:07.674Z,54.29
2023-05-05T13:01:36.254Z,54.96
2023-05-05T13:04:09.594Z,54.71
2023-05-05T13:06:37.933Z,54.95
2023-05-05T13:09:09.747Z,55.36
2023-05-05T13:11:39.790Z,55.42
2023-05-05T13:14:08.707Z,55.68
2023-05-05T13:16:36.927Z,55.73
2023-05-05T13:19:05.151Z,55.82
2023-05-05T13:21:33.533Z,56.50
2023-05-05T13:24:20.784Z,56.35
2023-05-05T13:26:51.259Z,56.49
2023-05-05T13:29:19.653Z,56.64
2023-05-05T13:31:47.888Z,56.22
2023-05-05T13:34:15.989Z,56.73
2023-05-05T13:36:44.063Z,57.26
2023-05-05T13:39:12.724Z,57.43
2023-05-05T13:41:40.834Z,56.49
2023-05-05T13:44:10.287Z,56.84
2023-05-05T13:46:38.430Z,56.58
2023-05-05T13:49:06.640Z,56.48
2023-05-05T13:51:35.596Z,57.15
2023-05-05T13:54:04.029Z,57.25
2023-05-05T13:56:32.127Z,57.67
2023-05-05T13:59:00.893Z,57.59
2023-05-05T14:01:30.685Z,57.11
2023-05-05T14:03:59.017Z,56.81
2023-05-05T14:06:27.770Z,56.44
2023-05-05T14:08:55.920Z,56.34
2023-05-05T14:11:24.310Z,56.48
2023-05-05T14:13:52.883Z,56.71
2023-05-05T14:16:21.071Z,56.04
2023-05-05T14:18:50.652Z,56.04
2023-05-05T14:21:18.735Z,56.31
2023-05-05T14:23:46.847Z,56.43
2023-05-05T14:26:14.907Z,56.74
2023-05-05T14:28:43.563Z,56.53
2023-05-05T14:31:12.000Z,56.21
2023-05-05T14:33:40.198Z,56.43
2023-05-05T14:36:10.254Z,56.59
2023-05-05T14:38:38.495Z,56.56
2023-05-05T14:41:06.638Z,56.78
2023-05-05T14:43:34.772Z,56.17
2023-05-05T14:46:06.642Z,56.20
2023-05-05T14:48:35.226Z,56.22
2023-05-05T14:51:03.333Z,55.96
2023-05-05T14:53:32.838Z,55.75
2023-05-05T14:56:02.273Z,55.66
2023-05-05T14:58:31.157Z,55.56
2023-05-05T15:01:00.452Z,55.96
2023-05-05T15:03:28.826Z,56.18
2023-05-05T15:05:57.012Z,55.72
2023-05-05T15:08:25.185Z,55.43
2023-05-05T15:10:54.634Z,55.18
2023-05-05T15:13:22.816Z,55.99
2023-05-05T15:15:51.389Z,56.06
2023-05-05T15:18:20.063Z,56.34
2023-05-05T15:20:48.209Z,56.27
2023-05-05T15:23:16.307Z,56.34
2023-05-05T15:25:44.508Z,55.87
2023-05-05T15:28:14.070Z,56.30
2023-05-05T15:30:42.136Z,56.78
2023-05-05T15:33:10.218Z,57.06
2023-05-05T15:35:38.490Z,57.56
2023-05-05T15:38:06.604Z,58.14
2023-05-05T15:40:34.655Z,58.58
2023-05-05T15:43:02.793Z,58.54
2023-05-05T15:45:32.242Z,58.60
2023-05-05T15:48:00.440Z,58.48
2023-05-05T15:50:28.613Z,58.57
2023-05-05T15:52:57.346Z,58.48
2023-05-05T15:55:25.617Z,58.61
2023-05-05T15:57:54.040Z,58.72
2023-05-05T16:00:22.613Z,58.84
2023-05-05T16:02:52.198Z,58.87
2023-05-05T16:05:22.830Z,58.78
2023-05-05T16:07:52.563Z,58.48
2023-05-05T16:10:20.842Z,58.89
2023-05-05T16:12:49.077Z,59.21
2023-05-05T16:15:17.140Z,59.70
2023-05-05T16:17:45.319Z,60.16
2023-05-05T16:20:14.985Z,60.24
2023-05-05T16:22:43.090Z,60.72
2023-05-05T16:25:11.516Z,60.72
2023-05-05T16:27:39.662Z,60.73
2023-05-05T16:30:10.228Z,61.15
2023-05-05T16:32:38.472Z,61.28
2023-05-05T16:35:09.220Z,61.25
2023-05-05T16:37:38.924Z,61.77
2023-05-05T16:40:08.221Z,61.82
2023-05-05T16:42:36.334Z,61.98
2023-05-05T16:45:04.851Z,62.27
2023-05-05T16:47:32.932Z,62.34
2023-05-05T16:50:00.997Z,62.30
2023-05-05T16:52:29.142Z,62.28
2023-05-05T16:54:58.622Z,62.41
2023-05-05T16:57:26.930Z,62.72
2023-05-05T16:59:56.275Z,62.79
2023-05-05T17:02:24.529Z,63.04
2023-05-05T17:04:52.836Z,63.01
2023-05-05T17:07:21.434Z,63.63
2023-05-05T17:09:49.639Z,63.69
2023-05-05T17:12:19.150Z,63.64
2023-05-05T17:14:47.275Z,63.47
2023-05-05T17:17:15.384Z,63.55
2023-05-05T17:19:44.831Z,63.95
2023-05-05T17:22:13.042Z,63.93
2023-05-05T17:24:41.215Z,64.19
2023-05-05T17:27:09.352Z,64.65
2023-05-05T17:29:40.920Z,65.49
2023-05-05T17:32:09.545Z,66.38
2023-05-05T17:34:37.825Z,67.22
2023-05-05T17:37:05.927Z,68.12
2023-05-05T17:39:34.113Z,69.32
2023-05-05T17:42:02.321Z,69.68
2023-05-05T17:44:31.445Z,69.82
2023-05-05T17:47:02.760Z,69.92
2023-05-05T17:49:30.961Z,70.40
2023-05-05T17:51:59.010Z,70.06
2023-05-05T17:54:27.246Z,70.66
2023-05-05T17:56:55.334Z,70.96
2023-05-05T17:59:23.469Z,71.56
2023-05-05T18:01:51.642Z,72.21
2023-05-05T18:04:21.043Z,72.65
2023-05-05T18:06:49.236Z,72.94
2023-05-05T18:09:17.703Z,73.60
2023-05-05T18:11:45.840Z,74.17
2023-05-05T18:14:14.028Z,75.43
2023-05-05T18:16:43.874Z,76.14
2023-05-05T18:19:11.997Z,76.46
2023-05-05T18:21:41.450Z,76.99
2023-05-05T18:24:19.480Z,77.67
2023-05-05T18:26:50.133Z,78.35
2023-05-05T18:29:18.307Z,79.08
2023-05-05T18:31:48.443Z,79.54
2023-05-05T18:34:17.871Z,79.83
2023-05-05T18:36:47.980Z,80.87
2023-05-05T18:39:16.280Z,81.54
2023-05-05T18:41:44.372Z,82.12
2023-05-05T18:44:12.616Z,82.58
2023-05-05T18:46:40.811Z,82.96
2023-05-05T18:49:08.946Z,83.49
2023-05-05T18:51:37.061Z,83.86
2023-05-05T18:54:06.872Z,84.14
2023-05-05T18:56:34.978Z,84.53
2023-05-05T18:59:03.206Z,84.98
2023-05-05T19:01:31.387Z,85.52
2023-05-05T19:03:59.539Z,85.91
2023-05-05T19:06:27.784Z,86.44
2023-05-05T19:08:56.810Z,86.66
2023-05-05T19:11:26.375Z,86.99
2023-05-05T19:13:54.524Z,86.82
2023-05-05T19:16:22.902Z,86.85
2023-05-05T19:18:51.046Z,86.97
2023-05-05T19:21:19.135Z,86.83
2023-05-05T19:23:47.217Z,86.94
2023-05-05T19:26:16.167Z,86.82
2023-05-05T19:28:45.606Z,87.07
2023-05-05T19:31:13.740Z,87.19
2023-05-05T19:33:45.461Z,86.73
2023-05-05T19:36:13.839Z,87.04
2023-05-05T19:38:44.310Z,87.01
2023-05-05T19:41:12.751Z,87.08
2023-05-05T19:43:40.848Z,87.13
2023-05-05T19:46:10.524Z,87.44
2023-05-05T19:48:39.084Z,87.63
2023-05-05T19:51:07.249Z,87.67
2023-05-05T19:53:35.781Z,87.89
2023-05-05T19:56:04.737Z,88.13
2023-05-05T19:58:53.059Z,88.22
2023-05-05T20:01:22.576Z,88.59
2023-05-05T20:03:51.077Z,88.84
2023-05-05T20:06:19.259Z,89.26
2023-05-05T20:08:47.382Z,89.39
2023-05-05T20:11:17.103Z,89.57
2023-05-05T20:13:45.230Z,89.62
2023-05-05T20:16:13.443Z,89.99
2023-05-05T20:18:42.963Z,90.11
2023-05-05T20:21:11.188Z,90.25
2023-05-05T20:23:39.495Z,90.11
2023-05-05T20:26:07.729Z,90.02
2023-05-05T20:28:36.825Z,90.24
2023-05-05T20:31:04.929Z,90.29
2023-05-05T20:33:33.069Z,90.58
2023-05-05T20:36:02.618Z,90.46
2023-05-05T20:38:30.809Z,90.60
2023-05-05T20:40:58.939Z,90.69
2023-05-05T20:43:27.213Z,90.75
2023-05-05T20:45:55.431Z,90.77
2023-05-05T20:48:23.525Z,90.78
2023-05-05T20:50:52.192Z,91.00
2023-05-05T20:53:24.274Z,91.11
2023-05-05T20:55:52.376Z,90.94
2023-05-05T20:58:20.553Z,90.88
2023-05-05T21:00:48.820Z,90.90
2023-05-05T21:03:16.919Z,90.67
2023-05-05T21:05:45.374Z,90.76
2023-05-05T21:08:13.405Z,90.57
2023-05-05T21:10:43.077Z,90.87
2023-05-05T21:13:11.196Z,91.02
2023-05-05T21:15:39.361Z,90.90
2023-05-05T21:18:07.546Z,90.78
2023-05-05T21:20:36.268Z,90.83
2023-05-05T21:23:04.402Z,90.92
2023-05-05T21:25:32.597Z,91.16
2023-05-05T21:28:02.016Z,91.25
2023-05-05T21:30:30.250Z,91.25
2023-05-05T21:32:58.372Z,91.46
2023-05-05T21:35:26.605Z,91.60
2023-05-05T21:37:54.664Z,91.91
2023-05-05T21:40:22.917Z,92.03
2023-05-05T21:42:50.980Z,91.96
2023-05-05T21:45:23.875Z,91.94
2023-05-05T21:47:52.001Z,92.06
2023-05-05T21:50:20.351Z,92.32
2023-05-05T21:52:48.468Z,92.39
2023-05-05T21:55:16.808Z,92.43
2023-05-05T21:57:44.890Z,92.41
2023-05-05T22:00:16.679Z,92.37
2023-05-05T22:02:46.578Z,92.28
2023-05-05T22:05:14.780Z,92.30
2023-05-05T22:07:42.880Z,92.42
2023-05-05T22:10:11.758Z,92.15
2023-05-05T22:12:40.104Z,92.39
2023-05-05T22:15:09.690Z,92.44
2023-05-05T22:17:38.009Z,92.58
2023-05-05T22:20:09.233Z,92.40
2023-05-05T22:22:37.481Z,92.44
2023-05-05T22:25:06.221Z,92.29
2023-05-05T22:27:34.269Z,92.53
2023-05-05T22:30:02.346Z,92.53
2023-05-05T22:32:30.484Z,92.60
2023-05-05T22:34:58.564Z,92.76
2023-05-05T22:37:28.095Z,92.82
2023-05-05T22:39:56.230Z,92.99
2023-05-05T22:42:24.279Z,92.66
2023-05-05T22:44:52.803Z,92.61
2023-05-05T22:47:21.108Z,92.59
2023-05-05T22:49:49.357Z,92.77
2023-05-05T22:52:17.936Z,92.72
2023-05-05T22:54:47.399Z,92.75
2023-05-05T22:57:15.448Z,92.76
2023-05-05T22:59:43.505Z,92.92
2023-05-05T23:02:11.592Z,92.88
2023-05-05T23:04:39.737Z,92.88
2023-05-05T23:07:07.849Z,93.02
2023-05-05T23:09:35.889Z,93.16
2023-05-05T23:12:05.383Z,93.07
2023-05-05T23:14:33.476Z,93.29
2023-05-05T23:17:01.585Z,93.44
2023-05-05T23:19:32.180Z,93.20
2023-05-05T23:22:00.418Z,93.22
2023-05-05T23:24:28.854Z,93.16
2023-05-05T23:26:59.349Z,93.02
2023-05-05T23:29:29.267Z,93.06
2023-05-05T23:31:57.359Z,92.99
2023-05-05T23:34:25.545Z,93.12
2023-05-05T23:36:53.606Z,93.15
2023-05-05T23:39:21.695Z,93.16
2023-05-05T23:41:49.794Z,93.26
2023-05-05T23:44:17.868Z,93.39
2023-05-05T23:46:47.297Z,93.40
2023-05-05T23:49:15.354Z,93.47
2023-05-05T23:51:43.431Z,93.60
2023-05-05T23:54:11.482Z,93.45
2023-05-05T23:56:40.767Z,93.58
2023-05-05T23:59:08.821Z,93.48
